Historyczne dane pomiarowe

Dodano dane terminowe – wersja testowa.

Dane z okresu 1951-2019

Wersja bazy: 1.34 [2019-03-16, lista zmian], aktualizacja planowana na 2019-04-15

Dane meteo z obszaru Polski uzyskane na podstawie danych udostępnionych przez Instytut Meteorologii i Gospodarki Wodnej – Państwowy Instytut Badawczy.

 

Wybierz Datę:    

       

TemperaturaWilgotnośćWiatrCiśnienieOpadyŚniegCzas trwania zjawisk
 Stacja t tx tn tng RH VA  wxwx mslp ppp RRR   cm mm wxwxwxwxwxwxwx
2019-06-13 22.5 30.4 11.4- 59.0- 2.7 2.0---- 0.0------------
2019-06-12 21.0 29.9 12.4- 70.8- 1.7 1.7---- 0.0------------
2019-06-11 21.9 29.9 12.9- 66.8- 2.3 1.7---- 0.0------------
2019-06-10 20.7 29.9 11.4- 78.8- 2.7 0.7---- 0.0------------
2019-06-09 20.0 28.4 15.4- 78.5- 5.3 2.0---- 0.0------------
2019-06-08 20.1 28.3 10.5- 77.3- 1.3 1.3---- 0.0------------
2019-06-07 19.1 24.5 12.9- 76.0- 4.7 1.7---- 0.0------------
2019-06-06 16.7 22.9 9.0- 80.0- 3.3 1.7---- 0.2------------
2019-06-05 17.0 25.0 10.5- 89.0- 5.7 1.0---- 8.0------------
2019-06-04 18.4 25.0 11.9- 73.8- 3.0 1.3---- 3.0------------
2019-06-03 17.1 25.5 6.5- 70.5- 3.3 2.0---- 0.0------------
2019-06-02 16.8 24.0 8.0- 73.8- 3.3 1.3---- 0.0------------
2019-06-01 15.0 22.5 4.0- 69.0- 3.7 2.0---- 0.0------------
2019-05-31 12.9 17.5 9.2- 90.5- 7.3 1.0---- 0.0------------
2019-05-30 9.8 11.1 9.2- 98.3- 8.0 1.7---- 7.6------------
2019-05-29 14.2 19.0 11.1- 95.5- 7.3 2.3---- 8.0------------
2019-05-28 17.4 20.3 14.8- 80.0- 7.3 2.0---- 3.2------------
2019-05-27 16.1 22.4 7.5- 82.0- 5.3 2.7---- 2.0------------
2019-05-26 13.5 21.7 4.1- 85.5- 6.7 1.0---- 4.4------------
2019-05-25 14.9 22.0 11.2- 90.3- 6.7 1.7---- 0.0------------
2019-05-24 12.7 16.4 10.7- 94.3- 8.0 1.3---- 0.0------------
2019-05-23 12.8 16.0 11.0- 92.5- 8.0 1.3---- 7.8------------
2019-05-22 12.7 15.0 11.2- 90.0- 7.3 1.7---- 2.5------------
2019-05-21 11.8 15.0 7.8- 90.3- 8.0 2.0---- 24.8------------
2019-05-20 14.9 19.3 9.0- 72.8- 6.3 2.0---- 0.2------------
2019-05-19 15.8 24.0 6.7- 76.0- 0.3 1.7---- 0.0------------
2019-05-18 16.4 24.0 9.8- 76.8- 5.0 1.3---- 0.0------------
2019-05-17 14.7 20.0 11.6- 81.3- 5.7 1.3---- 0.4------------
2019-05-16 12.4 15.5 10.1- 91.3- 7.0 0.7---- 0.6------------
2019-05-15 8.9 12.0 5.9- 96.0- 8.0 1.3---- 11.8------------
2019-05-14 4.3 6.0 2.4- 98.8- 8.0 1.7---- 18.4------------
2019-05-13 8.6 15.1 5.7- 95.0- 8.0 2.0---- 11.7------------
2019-05-12 13.2 21.0 3.6- 64.8- 5.0 2.0---- 0.0------------
2019-05-11 12.0 19.0 7.1- 78.3- 6.7 0.7---- 0.0------------
2019-05-10 10.7 16.0 7.8- 90.5- 7.3 0.7---- 1.0------------
2019-05-09 7.4 12.7 -1.0- 67.5- 7.7 3.0---- 1.6------------
2019-05-08 7.6 14.4 0.0- 59.8- 4.0 1.7---- 0.0------------
2019-05-07 7.5 12.4 2.8- 63.0- 6.3 3.0---- 0.0------------
2019-05-06 3.4 5.4 2.2- 97.0- 8.0 2.7---- 10.1------------
2019-05-05 6.8 10.4 4.9- 98.3- 7.3 2.3---- 16.7------------
2019-05-04 7.8 13.5 3.4- 95.0- 8.0 0.0---- 8.8------------
2019-05-03 9.8 15.3 3.5- 83.5- 7.3 2.0---- 15.7------------
2019-05-02 10.5 19.5 0.6- 71.5- 7.3 2.0---- 0.0------------
2019-05-01 9.4 15.0 7.5- 85.0- 6.7 2.3---- 1.7------------
2019-04-30 9.8 16.1 5.7- 90.0- 8.0 1.7---- 7.2------------
2019-04-29 10.8 16.5 7.3- 85.0- 8.0 1.3---- 0.2------------
2019-04-28 9.6 12.5 8.3- 96.5- 8.0 2.0---- 16.8------------
2019-04-27 14.7 20.5 9.8- 71.5- 8.0 2.7---- 12.2------------
2019-04-26 17.5 25.0 7.3- 50.3- 1.0 3.0---- 0.0------------
2019-04-25 14.8 22.2 4.2- 58.3- 4.7 4.0---- 0.0------------
2019-04-24 12.4 17.5 8.3- 61.8- 7.3 3.0---- 0.0------------
2019-04-23 10.1 18.5 3.0- 71.8- 6.7 1.3---- 0.0------------
2019-04-22 6.6 14.9 -0.8- 87.3- 7.3 1.3---- 2.8------------
2019-04-21 6.9 16.7 -1.4- 66.5- 5.3 1.3---- 0.0------------
2019-04-20 9.0 18.8 3.7- 56.0- 2.3 1.3---- 0.0------------
2019-04-19 7.2 18.2 -3.4- 65.3- 0.0 1.7---- 0.0------------
2019-04-18 8.2 17.0 1.7- 75.0- 3.3 1.7---- 0.0------------
2019-04-17 6.1 9.6 2.2- 87.5- 8.0 2.3---- 0.0------------
2019-04-16 2.1 12.4 -7.0- 71.5- 3.7 2.7---- 1.4------------
2019-04-15 3.2 11.4 -4.9- 55.5- 1.3 2.0---- 0.0------------
208.0 ms

 

Źródłem pochodzenia danych jest Instytut Meteorologii i Gospodarki Wodnej – Państwowy Instytut Badawczy. Dane Instytutu Meteorologii i Gospodarki Wodnej – Państwowego Instytutu Badawczego zostały przetworzone.

Dane źródłowe można odnaleźć na stronie https://dane.imgw.pl